createdAt,value
2022-08-20T03:52:03.914Z,0.00
2022-08-20T03:53:03.901Z,0.00
2022-08-20T03:54:03.889Z,0.00
2022-08-20T03:55:03.879Z,0.00
2022-08-20T03:56:03.870Z,0.00
2022-08-20T04:00:03.825Z,0.00
2022-08-20T04:01:03.881Z,0.00
2022-08-20T04:02:03.865Z,0.00
2022-08-20T04:03:03.793Z,0.00
2022-08-20T04:04:03.788Z,0.00
2022-08-20T04:05:03.776Z,0.00
2022-08-20T04:06:03.764Z,0.00
2022-08-20T04:07:03.753Z,0.00
2022-08-20T04:08:03.754Z,0.00
2022-08-20T04:09:03.732Z,0.00
2022-08-20T04:10:03.722Z,0.00
2022-08-20T04:11:03.709Z,0.00
2022-08-20T04:12:03.705Z,0.00
2022-08-20T04:13:03.692Z,0.00
2022-08-20T04:14:03.680Z,0.00
2022-08-20T04:15:03.704Z,0.00
2022-08-20T04:16:03.682Z,0.00
2022-08-20T04:17:03.648Z,0.00
2022-08-20T04:18:03.638Z,0.00
2022-08-20T04:19:03.637Z,0.00
2022-08-20T04:20:03.619Z,0.00
2022-08-20T04:21:03.607Z,0.00
2022-08-20T04:22:03.599Z,0.00
2022-08-20T04:23:03.584Z,0.00
2022-08-20T04:24:03.573Z,0.00
2022-08-20T04:25:03.563Z,0.00
2022-08-20T04:26:03.552Z,0.00
2022-08-20T04:27:03.542Z,0.00
2022-08-20T04:28:03.532Z,0.00
2022-08-20T04:29:03.525Z,0.00
2022-08-20T04:30:03.516Z,0.00
2022-08-20T04:31:03.499Z,5.62
2022-08-20T04:32:05.889Z,5.62
2022-08-20T04:33:03.481Z,5.62
2022-08-20T04:34:03.475Z,5.62
2022-08-20T04:35:03.458Z,5.62
2022-08-20T04:36:03.449Z,5.62
2022-08-20T04:37:03.443Z,5.62
2022-08-20T04:38:03.429Z,11.25
2022-08-20T04:39:03.417Z,11.25
2022-08-20T04:40:03.427Z,11.25
2022-08-20T04:41:03.393Z,11.25
2022-08-20T04:42:03.386Z,11.25
2022-08-20T04:43:03.373Z,16.87
2022-08-20T04:44:03.364Z,16.87
2022-08-20T04:45:03.355Z,16.87
2022-08-20T04:46:03.346Z,16.87
2022-08-20T04:47:03.334Z,16.87
2022-08-20T04:48:03.322Z,22.50
2022-08-20T04:49:03.311Z,22.50
2022-08-20T04:50:03.300Z,22.50
2022-08-20T04:51:03.982Z,22.50
2022-08-20T04:52:03.283Z,22.50
2022-08-20T04:53:03.271Z,28.12
2022-08-20T04:54:03.259Z,28.12
2022-08-20T04:55:03.246Z,28.12
2022-08-20T04:56:03.248Z,28.12
2022-08-20T04:57:03.248Z,28.12
2022-08-20T04:58:03.216Z,33.75
2022-08-20T04:59:03.205Z,33.75
2022-08-20T05:00:03.199Z,33.75
2022-08-20T05:01:03.268Z,33.75
2022-08-20T05:02:03.176Z,33.75
2022-08-20T05:03:03.166Z,39.37
2022-08-20T05:04:03.157Z,39.37
2022-08-20T05:05:03.148Z,39.37
2022-08-20T05:06:03.133Z,39.37
2022-08-20T05:07:03.225Z,39.37
2022-08-20T05:08:03.114Z,39.37
2022-08-20T05:09:03.105Z,45.00
2022-08-20T05:10:03.094Z,45.00
2022-08-20T05:11:33.167Z,45.00
2022-08-20T05:12:04.096Z,45.00
2022-08-20T05:13:03.068Z,45.00
2022-08-20T05:14:03.055Z,45.00
2022-08-20T05:15:03.043Z,50.62
2022-08-20T05:16:03.033Z,50.62
2022-08-20T05:17:03.023Z,50.62
2022-08-20T05:18:03.014Z,50.62
2022-08-20T05:19:03.004Z,50.62
2022-08-20T05:20:02.992Z,50.62
2022-08-20T05:21:02.985Z,56.25
2022-08-20T05:22:02.976Z,56.25
2022-08-20T05:23:02.965Z,56.25
2022-08-20T05:24:02.985Z,56.25
2022-08-20T05:25:02.948Z,56.25
2022-08-20T05:26:02.933Z,56.25
2022-08-20T05:27:02.921Z,61.87
2022-08-20T05:28:02.912Z,61.87
2022-08-20T05:29:02.902Z,61.87
2022-08-20T05:30:03.000Z,61.87
2022-08-20T05:31:02.881Z,61.87
2022-08-20T05:32:02.870Z,61.87
2022-08-20T05:33:02.863Z,61.87
2022-08-20T05:34:02.858Z,61.87
2022-08-20T05:35:02.849Z,67.50
2022-08-20T05:36:02.830Z,67.50
2022-08-20T05:37:02.820Z,67.50
2022-08-20T05:38:02.808Z,67.50
2022-08-20T05:39:02.800Z,67.50
2022-08-20T05:40:02.854Z,67.50
2022-08-20T05:41:02.779Z,67.50
2022-08-20T05:42:02.770Z,67.50
2022-08-20T05:43:02.761Z,73.12
2022-08-20T05:44:02.750Z,73.12
2022-08-20T05:45:02.738Z,73.12
2022-08-20T05:46:02.730Z,73.12
2022-08-20T05:47:04.181Z,73.12
2022-08-20T05:48:03.486Z,73.12
2022-08-20T05:49:02.697Z,73.12
2022-08-20T05:50:02.687Z,73.12
2022-08-20T05:51:02.676Z,73.12
2022-08-20T05:52:02.666Z,78.75
2022-08-20T05:53:02.657Z,78.75
2022-08-20T05:54:02.646Z,78.75
2022-08-20T05:55:02.638Z,78.75
2022-08-20T05:56:02.627Z,78.75
2022-08-20T05:57:02.619Z,78.75
2022-08-20T05:58:02.605Z,78.75
2022-08-20T05:59:02.605Z,78.75
2022-08-20T06:00:02.584Z,78.75
2022-08-20T06:01:02.637Z,78.75
2022-08-20T06:02:02.685Z,78.75
2022-08-20T06:03:02.552Z,84.37
2022-08-20T06:04:02.540Z,84.37
2022-08-20T06:05:02.533Z,84.37
2022-08-20T06:06:02.523Z,84.37
2022-08-20T06:07:02.512Z,84.37
2022-08-20T06:08:07.858Z,84.37
2022-08-20T06:09:02.493Z,84.37
2022-08-20T06:10:02.483Z,84.37
2022-08-20T06:11:02.471Z,84.37
2022-08-20T06:12:02.475Z,84.37
2022-08-20T06:13:02.447Z,84.37
2022-08-20T06:14:02.442Z,84.37
2022-08-20T06:15:02.428Z,84.37
2022-08-20T06:16:02.417Z,84.37
2022-08-20T06:17:02.411Z,90.00
2022-08-20T06:18:03.673Z,90.00
2022-08-20T06:19:03.409Z,90.00
2022-08-20T06:20:02.378Z,90.00
2022-08-20T06:21:02.366Z,90.00
2022-08-20T06:22:02.356Z,90.00
2022-08-20T06:23:03.367Z,90.00
2022-08-20T06:24:02.338Z,90.00
2022-08-20T06:25:02.328Z,90.00
2022-08-20T06:26:02.315Z,90.00
2022-08-20T06:27:02.310Z,90.00
2022-08-20T06:28:02.295Z,90.00
2022-08-20T06:29:02.281Z,90.00
2022-08-20T06:30:02.277Z,90.00
2022-08-20T06:31:02.263Z,90.00
2022-08-20T06:32:02.253Z,90.00
2022-08-20T06:33:02.244Z,90.00
2022-08-20T06:34:02.233Z,90.00
2022-08-20T06:35:02.303Z,95.62
2022-08-20T06:36:02.213Z,95.62
2022-08-20T06:37:02.202Z,95.62
2022-08-20T06:38:02.187Z,95.62
2022-08-20T06:39:02.178Z,95.62
2022-08-20T06:40:02.238Z,95.62
2022-08-20T06:41:02.156Z,95.62
2022-08-20T06:42:02.150Z,95.62
2022-08-20T06:43:02.137Z,95.62
2022-08-20T06:44:02.124Z,95.62
2022-08-20T06:45:02.117Z,95.62
2022-08-20T06:46:02.105Z,95.62
2022-08-20T06:47:02.093Z,95.62
2022-08-20T06:48:02.082Z,101.25
2022-08-20T06:49:02.076Z,101.25
2022-08-20T06:50:02.077Z,101.25
2022-08-20T06:51:02.057Z,101.25
2022-08-20T06:52:02.042Z,101.25
2022-08-20T06:53:02.032Z,101.25
2022-08-20T06:54:02.070Z,101.25
2022-08-20T06:55:02.013Z,106.87
2022-08-20T06:56:01.995Z,106.87
2022-08-20T06:57:01.986Z,112.50
2022-08-20T06:58:01.977Z,129.37
2022-08-20T06:59:01.965Z,135.00
2022-08-20T07:00:01.952Z,135.00
2022-08-20T07:01:09.040Z,140.62
2022-08-20T07:02:02.954Z,140.62
2022-08-20T07:03:01.922Z,140.62
2022-08-20T07:04:01.912Z,140.62
2022-08-20T07:05:01.901Z,140.62
2022-08-20T07:06:01.888Z,140.62
2022-08-20T07:07:01.879Z,140.62
2022-08-20T07:08:01.868Z,140.62
2022-08-20T07:09:01.858Z,140.62
2022-08-20T07:10:01.847Z,140.62
2022-08-20T07:11:01.835Z,140.62
2022-08-20T07:12:01.825Z,140.62
2022-08-20T07:13:01.815Z,140.62
2022-08-20T07:14:01.806Z,140.62
2022-08-20T07:15:01.794Z,140.62
2022-08-20T07:16:01.784Z,140.62
2022-08-20T07:17:01.776Z,140.62
2022-08-20T07:18:01.856Z,140.62
2022-08-20T07:19:01.755Z,140.62
2022-08-20T07:20:01.743Z,146.25
2022-08-20T07:21:01.733Z,146.25
2022-08-20T07:22:01.727Z,146.25
2022-08-20T07:23:01.713Z,146.25
2022-08-20T07:24:01.702Z,146.25
2022-08-20T07:25:01.695Z,146.25
2022-08-20T07:26:01.681Z,146.25
2022-08-20T07:27:01.673Z,151.87
2022-08-20T07:28:01.664Z,151.87
2022-08-20T07:29:01.653Z,151.87
2022-08-20T07:30:01.640Z,163.12
2022-08-20T07:31:04.026Z,180.00
2022-08-20T07:32:02.640Z,202.50
2022-08-20T07:33:01.610Z,213.75
2022-08-20T07:34:01.601Z,230.62
2022-08-20T07:35:01.591Z,225.00
2022-08-20T07:36:01.579Z,225.00
2022-08-20T07:37:01.568Z,219.37
2022-08-20T07:38:01.560Z,208.12
2022-08-20T07:39:05.666Z,202.50
2022-08-20T07:40:01.620Z,196.87
2022-08-20T07:41:01.530Z,196.87
2022-08-20T07:42:01.518Z,196.87
2022-08-20T07:43:01.505Z,196.87
2022-08-20T07:44:01.499Z,196.87
2022-08-20T07:45:01.485Z,196.87
2022-08-20T07:46:01.477Z,196.87
2022-08-20T07:47:01.471Z,196.87
2022-08-20T07:48:01.455Z,196.87
2022-08-20T07:49:01.448Z,191.25
2022-08-20T07:50:01.439Z,191.25
2022-08-20T07:51:01.432Z,191.25
2022-08-20T07:52:01.417Z,191.25
2022-08-20T07:53:01.409Z,191.25
2022-08-20T07:54:01.394Z,196.87
2022-08-20T07:55:01.386Z,196.87
2022-08-20T07:56:01.375Z,196.87
2022-08-20T07:57:01.367Z,196.87
2022-08-20T07:58:01.355Z,196.87
2022-08-20T07:59:01.348Z,196.87
2022-08-20T08:00:01.335Z,196.87
2022-08-20T08:01:01.409Z,202.50
2022-08-20T08:02:01.317Z,202.50
2022-08-20T08:03:01.305Z,202.50
2022-08-20T08:04:01.291Z,208.12
2022-08-20T08:05:01.281Z,208.12
2022-08-20T08:06:01.272Z,208.12
2022-08-20T08:07:01.264Z,213.75
2022-08-20T08:08:03.651Z,219.37
2022-08-20T08:09:01.241Z,219.37
2022-08-20T08:10:01.229Z,213.75
2022-08-20T08:11:01.222Z,213.75
2022-08-20T08:12:01.210Z,208.12
2022-08-20T08:13:01.204Z,213.75
2022-08-20T08:14:01.243Z,213.75
2022-08-20T08:15:01.184Z,213.75
2022-08-20T08:16:01.170Z,219.37
2022-08-20T08:17:01.159Z,225.00
2022-08-20T08:18:01.151Z,225.00
2022-08-20T08:19:01.140Z,230.62
2022-08-20T08:20:01.134Z,230.62
2022-08-20T08:21:01.120Z,236.25
2022-08-20T08:22:01.109Z,230.62
2022-08-20T08:23:01.104Z,230.62
2022-08-20T08:24:01.090Z,225.00
2022-08-20T08:25:01.084Z,219.37
2022-08-20T08:26:01.073Z,213.75
2022-08-20T08:27:01.060Z,219.37
2022-08-20T08:28:01.052Z,219.37
2022-08-20T08:29:01.050Z,230.62
2022-08-20T08:30:01.032Z,236.25
2022-08-20T08:31:01.023Z,236.25
2022-08-20T08:32:01.011Z,236.25
2022-08-20T08:33:00.999Z,230.62
2022-08-20T08:34:00.993Z,230.62
2022-08-20T08:35:00.979Z,230.62
2022-08-20T08:36:00.971Z,230.62
2022-08-20T08:37:00.960Z,230.62
2022-08-20T08:38:00.953Z,225.00
2022-08-20T08:39:00.943Z,225.00
2022-08-20T08:40:01.015Z,219.37
2022-08-20T08:41:00.919Z,219.37
2022-08-20T08:42:00.915Z,213.75
2022-08-20T08:43:00.900Z,213.75
2022-08-20T08:44:00.892Z,213.75
2022-08-20T08:45:00.881Z,208.12
2022-08-20T08:46:00.870Z,208.12
2022-08-20T08:47:00.863Z,213.75
2022-08-20T08:48:00.852Z,208.12
2022-08-20T08:49:00.842Z,202.50
2022-08-20T08:50:00.828Z,202.50
2022-08-20T08:51:00.820Z,202.50
2022-08-20T08:52:00.808Z,202.50
2022-08-20T08:53:00.802Z,202.50
2022-08-20T08:54:05.962Z,202.50
2022-08-20T08:55:01.801Z,202.50
2022-08-20T08:56:00.772Z,202.50
2022-08-20T08:57:00.764Z,202.50
2022-08-20T08:58:00.760Z,202.50
2022-08-20T08:59:01.770Z,202.50
2022-08-20T09:00:05.055Z,202.50
2022-08-20T09:01:03.936Z,202.50
2022-08-20T09:02:00.794Z,202.50
2022-08-20T09:03:01.073Z,202.50
2022-08-20T09:04:00.696Z,202.50
2022-08-20T09:05:00.690Z,202.50
2022-08-20T09:06:00.676Z,202.50
2022-08-20T09:07:00.671Z,202.50
2022-08-20T09:08:00.660Z,202.50
2022-08-20T09:09:00.649Z,202.50
2022-08-20T09:10:00.641Z,202.50
2022-08-20T09:11:00.627Z,202.50
2022-08-20T09:12:00.615Z,202.50
2022-08-20T09:13:00.647Z,202.50
2022-08-20T09:14:00.596Z,202.50
2022-08-20T09:15:00.590Z,202.50
2022-08-20T09:16:00.579Z,208.12
2022-08-20T09:17:00.569Z,208.12
2022-08-20T09:18:00.559Z,208.12
2022-08-20T09:19:00.548Z,208.12
2022-08-20T09:20:00.539Z,208.12
2022-08-20T09:21:00.528Z,208.12
2022-08-20T09:22:00.519Z,213.75
2022-08-20T09:23:00.516Z,213.75
2022-08-20T09:24:00.503Z,208.12
2022-08-20T09:25:00.491Z,208.12
2022-08-20T09:26:00.482Z,208.12
2022-08-20T09:27:00.473Z,208.12
2022-08-20T09:28:00.461Z,208.12
2022-08-20T09:29:00.453Z,208.12
2022-08-20T09:30:00.442Z,208.12
2022-08-20T09:31:00.435Z,213.75
2022-08-20T09:32:00.428Z,219.37
2022-08-20T09:33:00.414Z,225.00
2022-08-20T09:34:00.410Z,225.00
2022-08-20T09:35:00.396Z,219.37
2022-08-20T09:36:00.387Z,219.37
2022-08-20T09:37:00.379Z,219.37
2022-08-20T09:38:00.364Z,219.37
2022-08-20T09:39:00.376Z,219.37
2022-08-20T09:40:00.448Z,219.37
2022-08-20T09:41:00.340Z,219.37
2022-08-20T09:42:00.325Z,219.37
2022-08-20T09:43:00.315Z,219.37
2022-08-20T09:44:00.311Z,219.37
2022-08-20T09:45:00.303Z,225.00
2022-08-20T09:46:00.289Z,225.00
2022-08-20T09:47:00.279Z,225.00
2022-08-20T09:48:00.411Z,225.00
2022-08-20T09:49:00.262Z,225.00
2022-08-20T09:50:00.254Z,225.00
2022-08-20T09:51:00.244Z,225.00
2022-08-20T09:52:00.236Z,230.62
2022-08-20T09:53:00.223Z,230.62
2022-08-20T09:54:00.221Z,230.62
2022-08-20T09:55:00.205Z,230.62
2022-08-20T09:56:00.220Z,230.62
2022-08-20T09:57:00.186Z,230.62
2022-08-20T09:58:00.175Z,230.62
2022-08-20T09:59:02.938Z,230.62
2022-08-20T10:00:00.171Z,230.62
2022-08-20T10:01:00.147Z,230.62
2022-08-20T10:02:00.210Z,236.25
2022-08-20T10:03:00.130Z,236.25
2022-08-20T10:04:00.122Z,236.25
2022-08-20T10:05:00.122Z,236.25
2022-08-20T10:06:00.102Z,236.25
2022-08-20T10:07:00.096Z,241.87
2022-08-20T10:08:00.088Z,241.87
2022-08-20T10:09:00.079Z,241.87
2022-08-20T10:10:00.071Z,241.87
2022-08-20T10:11:00.056Z,247.50
2022-08-20T10:12:00.044Z,247.50
2022-08-20T10:13:00.038Z,247.50
2022-08-20T10:14:00.038Z,253.12
2022-08-20T10:15:00.018Z,253.12
2022-08-20T10:16:00.009Z,253.12
2022-08-20T10:17:00.215Z,258.75
2022-08-20T10:17:59.992Z,264.37
2022-08-20T10:18:59.985Z,270.00
2022-08-20T10:19:59.969Z,286.87
2022-08-20T10:20:59.963Z,331.87
2022-08-20T10:21:59.955Z,348.75
2022-08-20T10:22:59.946Z,326.25
2022-08-20T10:23:59.940Z,320.62
2022-08-20T10:24:59.928Z,354.37
2022-08-20T10:25:59.916Z,388.12
2022-08-20T10:26:59.908Z,388.12
2022-08-20T10:27:59.897Z,360.00
2022-08-20T10:28:59.894Z,360.00
2022-08-20T10:29:59.879Z,365.62
2022-08-20T10:30:59.873Z,354.37
2022-08-20T10:31:59.866Z,365.62
2022-08-20T10:32:59.853Z,371.25
2022-08-20T10:33:59.845Z,376.87
2022-08-20T10:34:59.832Z,376.87
2022-08-20T10:36:00.263Z,388.12
2022-08-20T10:36:59.821Z,388.12
2022-08-20T10:37:59.810Z,399.37
2022-08-20T10:38:59.798Z,410.62
2022-08-20T10:39:59.863Z,416.25
2022-08-20T10:40:59.780Z,410.62
2022-08-20T10:41:59.775Z,354.37
2022-08-20T10:42:59.762Z,421.87
2022-08-20T10:43:59.759Z,416.25
2022-08-20T10:44:59.744Z,416.25
2022-08-20T10:45:59.736Z,416.25
2022-08-20T10:46:59.729Z,421.87
2022-08-20T10:47:59.717Z,416.25
2022-08-20T10:48:59.706Z,416.25
2022-08-20T10:49:59.701Z,421.87
2022-08-20T10:50:59.689Z,444.37
2022-08-20T10:51:59.679Z,461.25
2022-08-20T10:52:59.669Z,466.87
2022-08-20T10:53:59.658Z,466.87
2022-08-20T10:54:59.653Z,455.62
2022-08-20T10:55:59.642Z,483.75
2022-08-20T10:56:59.636Z,483.75
2022-08-20T10:57:59.623Z,517.50
2022-08-20T10:58:59.619Z,534.37
2022-08-20T10:59:59.608Z,495.00
2022-08-20T11:00:59.597Z,511.87
2022-08-20T11:01:59.651Z,511.87
2022-08-20T11:02:59.580Z,511.87
2022-08-20T11:03:59.571Z,551.25
2022-08-20T11:04:59.562Z,585.00
2022-08-20T11:05:59.554Z,545.62
2022-08-20T11:07:59.534Z,568.12
2022-08-20T11:08:59.525Z,562.50
2022-08-20T11:09:59.516Z,579.37
2022-08-20T11:10:59.507Z,585.00
2022-08-20T11:11:59.498Z,573.75
2022-08-20T11:12:59.493Z,573.75
2022-08-20T11:13:59.483Z,579.37
2022-08-20T11:14:59.495Z,562.50
2022-08-20T11:15:59.468Z,568.12
2022-08-20T11:16:59.456Z,585.00
2022-08-20T11:17:59.446Z,601.87
2022-08-20T11:18:59.438Z,596.25
2022-08-20T11:19:59.430Z,596.25
2022-08-20T11:20:59.421Z,601.87
2022-08-20T11:21:59.411Z,596.25
2022-08-20T11:22:59.405Z,573.75
2022-08-20T11:24:02.772Z,579.37
2022-08-20T11:24:59.389Z,624.37
2022-08-20T11:25:59.377Z,630.00
2022-08-20T11:26:59.366Z,635.62
2022-08-20T11:27:59.359Z,652.50
2022-08-20T11:28:59.350Z,697.50
2022-08-20T11:29:59.342Z,675.00
2022-08-20T11:30:59.363Z,635.62
2022-08-20T11:31:59.334Z,646.87
2022-08-20T11:32:59.316Z,658.12
2022-08-20T11:33:59.311Z,731.25
2022-08-20T11:34:59.329Z,725.62
2022-08-20T11:35:59.296Z,680.62
2022-08-20T11:37:59.463Z,680.62
2022-08-20T11:38:59.283Z,708.75
2022-08-20T11:39:59.284Z,691.87
2022-08-20T11:40:59.244Z,669.37
2022-08-20T11:41:59.239Z,697.50
2022-08-20T11:44:20.446Z,748.12
2022-08-20T11:45:00.233Z,714.37
2022-08-20T11:45:59.204Z,686.25
2022-08-20T11:46:59.197Z,748.12
2022-08-20T11:47:59.186Z,776.25
2022-08-20T11:48:59.180Z,708.75
2022-08-20T11:49:59.170Z,787.50
2022-08-20T11:50:59.162Z,793.12
2022-08-20T11:51:59.154Z,742.50
2022-08-20T11:52:59.150Z,725.62
2022-08-20T11:53:59.136Z,765.00
2022-08-20T11:54:59.129Z,765.00
2022-08-20T11:55:59.121Z,765.00
2022-08-20T11:56:59.137Z,781.87
2022-08-20T11:58:59.095Z,815.62
2022-08-20T12:00:59.078Z,787.50
2022-08-20T12:02:03.315Z,787.50
2022-08-20T12:03:59.055Z,815.62
2022-08-20T12:04:59.050Z,810.00
2022-08-20T12:05:59.044Z,821.25
2022-08-20T12:06:59.034Z,866.25
2022-08-20T12:07:59.027Z,883.12
2022-08-20T12:08:59.017Z,843.75
2022-08-20T12:09:59.010Z,787.50
2022-08-20T12:10:59.001Z,787.50
2022-08-20T12:11:58.996Z,843.75
2022-08-20T12:12:59.283Z,916.87
2022-08-20T12:14:58.969Z,877.50
2022-08-20T12:15:58.962Z,888.75
2022-08-20T12:17:58.942Z,849.37
2022-08-20T12:18:58.937Z,871.87
2022-08-20T12:19:58.927Z,849.37
2022-08-20T12:20:58.919Z,838.12
2022-08-20T12:21:58.907Z,843.75
2022-08-20T12:22:59.003Z,866.25
2022-08-20T12:23:58.898Z,877.50
2022-08-20T12:24:58.884Z,866.25
2022-08-20T12:27:25.203Z,883.12
2022-08-20T12:27:26.613Z,883.12
2022-08-20T12:28:26.602Z,849.37
2022-08-20T12:32:48.332Z,905.62
2022-08-20T12:33:48.323Z,916.87
2022-08-20T12:37:25.877Z,911.25
2022-08-20T12:37:27.983Z,911.25
2022-08-20T12:38:27.272Z,933.75
2022-08-20T12:39:37.234Z,883.12
2022-08-20T12:40:31.871Z,905.62
2022-08-20T12:43:09.306Z,877.50
2022-08-20T12:43:10.705Z,877.50
2022-08-20T12:44:10.773Z,922.50
2022-08-20T16:39:53.094Z,933.75
2022-08-20T16:42:43.875Z,905.62
2022-08-20T16:42:45.285Z,905.62
2022-08-20T16:45:21.564Z,933.75
2022-08-20T16:45:22.975Z,933.75
2022-08-20T16:46:22.966Z,905.62
2022-08-20T16:47:22.955Z,866.25
2022-08-20T16:48:22.954Z,826.87
2022-08-20T16:49:22.943Z,826.87
2022-08-20T16:50:22.932Z,860.62
2022-08-20T16:51:22.927Z,894.37
2022-08-20T16:52:22.918Z,838.12
2022-08-20T16:53:22.911Z,753.75
2022-08-20T16:54:28.346Z,725.62
2022-08-20T16:55:23.919Z,714.37
2022-08-20T16:57:22.882Z,742.50
2022-08-20T16:58:22.872Z,736.87
2022-08-20T16:59:26.906Z,714.37
2022-08-20T17:00:22.853Z,725.62
2022-08-20T17:01:22.918Z,765.00
2022-08-20T17:02:22.836Z,742.50
2022-08-20T17:03:31.640Z,697.50
2022-08-20T17:04:23.840Z,686.25
2022-08-20T17:05:22.810Z,675.00
2022-08-20T17:06:22.800Z,669.37
2022-08-20T17:07:25.758Z,630.00
2022-08-20T17:08:25.253Z,613.12
2022-08-20T17:10:22.766Z,613.12
2022-08-20T17:11:22.758Z,556.87
2022-08-20T17:13:23.810Z,635.62
2022-08-20T17:14:22.734Z,601.87
2022-08-20T17:15:22.725Z,545.62
2022-08-20T17:16:22.714Z,556.87
2022-08-20T17:17:22.705Z,551.25
2022-08-20T17:19:22.689Z,523.12
2022-08-20T17:20:22.676Z,523.12
2022-08-20T17:21:22.667Z,500.62
2022-08-20T17:22:22.660Z,523.12
2022-08-20T17:23:22.649Z,506.25
2022-08-20T17:24:22.642Z,483.75
2022-08-20T17:25:22.636Z,472.50
2022-08-20T17:26:22.626Z,455.62
2022-08-20T17:27:22.615Z,444.37
2022-08-20T17:28:22.605Z,433.12
2022-08-20T17:29:22.598Z,438.75
2022-08-20T17:30:22.589Z,450.00
2022-08-20T17:31:22.583Z,444.37
2022-08-20T17:32:23.600Z,410.62
2022-08-20T17:33:22.559Z,399.37
2022-08-20T17:34:22.551Z,405.00
2022-08-20T17:35:22.541Z,382.50
2022-08-20T17:36:22.530Z,371.25
2022-08-20T17:37:22.525Z,376.87
2022-08-20T17:38:22.516Z,360.00
2022-08-20T17:39:22.504Z,326.25
2022-08-20T17:43:22.469Z,315.00
2022-08-20T17:46:22.441Z,286.87
2022-08-20T17:47:22.435Z,286.87
2022-08-20T17:49:22.415Z,236.25
2022-08-20T17:50:22.401Z,241.87
2022-08-20T17:51:22.394Z,225.00
2022-08-20T17:52:22.382Z,219.37
2022-08-20T17:53:23.645Z,230.62
2022-08-20T17:54:22.365Z,225.00
2022-08-20T17:56:22.346Z,174.37
2022-08-20T17:57:22.337Z,90.00
2022-08-20T17:58:22.326Z,39.37
2022-08-20T17:59:44.393Z,33.75
2022-08-20T18:01:22.376Z,33.75
2022-08-20T18:02:22.293Z,33.75
2022-08-20T18:03:22.278Z,28.12
2022-08-20T18:04:22.273Z,28.12
2022-08-20T18:05:22.271Z,28.12
2022-08-20T18:06:22.251Z,28.12
2022-08-20T18:07:22.241Z,22.50
2022-08-20T18:08:22.236Z,22.50
2022-08-20T18:09:22.222Z,22.50
2022-08-20T18:10:22.213Z,22.50
2022-08-20T18:11:22.204Z,16.87
2022-08-20T18:12:32.926Z,16.87
2022-08-20T18:13:23.207Z,16.87
2022-08-20T18:15:24.491Z,16.87
2022-08-20T18:16:22.155Z,11.25
2022-08-20T18:17:22.146Z,11.25
2022-08-20T18:18:22.136Z,11.25
2022-08-20T18:21:22.104Z,11.25
2022-08-20T18:22:22.093Z,5.62
2022-08-20T18:23:22.085Z,5.62
2022-08-20T18:24:22.074Z,5.62
2022-08-20T18:26:22.054Z,5.62
2022-08-20T18:30:22.012Z,0.00
2022-08-20T18:38:21.930Z,0.00
2022-08-20T18:40:22.007Z,0.00
2022-08-20T18:43:21.880Z,0.00
2022-08-20T18:49:21.823Z,0.00
2022-08-20T18:51:21.804Z,0.00
2022-08-20T19:00:21.708Z,0.00
2022-08-20T19:08:21.628Z,0.00
2022-08-20T19:09:21.619Z,0.00
2022-08-20T19:10:27.746Z,0.00
2022-08-20T19:11:22.618Z,0.00
2022-08-20T19:13:21.575Z,0.00
2022-08-20T19:43:21.266Z,0.00
